Time;durP1;ratioP1;P1;durP2;ratioP2;P2;SDS_P1;SDS_P2;PMS_P1;PMS_P2;Temp;Humidity;BMP_temperature;BMP_pressure;BME280_temperature;BME280_humidity;BME280_pressure;Samples;Min_cycle;Max_cycle;Signal;HPM_P1;HPM_P2
2023/03/26 00:02:05;;;;;;;;;;;;;;;6.12;90.54;100278.13;4960615;28;20510;-72
2023/03/26 00:04:32;;;;;;;;;;;;;;;6.13;90.16;100274.41;4960392;28;19943;-72
2023/03/26 00:06:58;;;;;;;;;;;;;;;6.13;90.34;100280.50;4936347;28;20050;-72
2023/03/26 00:09:23;;;;;;;;;;;;;;;6.09;90.44;100279.41;4944299;28;20370;-72
2023/03/26 00:11:49;;;;;;;;;;;;;;;6.13;90.18;100280.50;4938796;28;20526;-72
2023/03/26 00:14:16;;;;;;;;;;;;;;;6.11;89.69;100285.28;4943616;28;20488;-72
2023/03/26 00:16:42;;;;;;;;;;;;;;;6.09;90.18;100297.22;4946155;28;20191;-72
2023/03/26 00:19:09;;;;;;;;;;;;;;;6.10;90.35;100293.53;4953330;28;19956;-72
2023/03/26 00:21:35;;;;;;;;;;;;;;;6.16;90.33;100300.47;4942575;28;20401;-73
2023/03/26 00:24:05;;;;;;;;;;;;;;;6.16;90.06;100295.94;4954754;28;19944;-72
2023/03/26 00:26:34;;;;;;;;;;;;;;;6.08;90.40;100307.03;4958243;28;20376;-72
2023/03/26 00:29:02;;;;;;;;;;;;;;;6.09;90.42;100305.19;4937905;28;20041;-72
2023/03/26 00:31:27;;;;;;;;;;;;;;;6.10;90.39;100299.63;4942088;28;20021;-71
2023/03/26 00:33:54;;;;;;;;;;;;;;;5.97;89.82;100305.34;4957722;28;19937;-71
2023/03/26 00:36:20;;;;;;;;;;;;;;;5.89;90.13;100313.72;4945488;28;19939;-72
2023/03/26 00:38:47;;;;;;;;;;;;;;;5.83;90.47;100318.19;4960382;28;19963;-73
2023/03/26 00:41:21;;;;;;;;;;;;;;;5.91;89.91;100319.63;4939666;28;20023;-72
2023/03/26 00:43:47;;;;;;;;;;;;;;;5.87;90.65;100323.78;4938896;28;20314;-73
2023/03/26 00:46:13;;;;;;;;;;;;;;;5.95;90.33;100326.03;4944485;28;19945;-72
2023/03/26 00:48:41;;;;;;;;;;;;;;;5.94;90.48;100327.09;4932297;28;20455;-73
2023/03/26 00:51:07;;;;;;;;;;;;;;;5.99;90.07;100317.31;4958810;28;20501;-73
2023/03/26 00:53:33;;;;;;;;;;;;;;;6.01;89.54;100319.72;4958076;28;20494;-72
2023/03/26 00:55:59;;;;;;;;;;;;;;;5.96;89.82;100323.16;4949888;28;19935;-71
2023/03/26 00:58:28;;;;;;;;;;;;;;;5.93;89.63;100322.81;4962667;28;19959;-73
2023/03/26 01:00:58;;;;;;;;;;;;;;;5.92;90.02;100331.84;4959982;28;19939;-73
2023/03/26 01:03:27;;;;;;;;;;;;;;;5.88;89.58;100336.81;4941927;28;20029;-73
2023/03/26 01:06:09;;;;;;;;;;;;;;;5.85;89.91;100339.19;4939045;28;19978;-73
2023/03/26 01:08:43;;;;;;;;;;;;;;;5.88;89.86;100330.72;4956639;28;19968;-73
2023/03/26 01:11:21;;;;;;;;;;;;;;;5.91;89.94;100346.19;4922515;28;19954;-73
2023/03/26 01:13:48;;;;;;;;;;;;;;;5.93;89.33;100352.06;4941277;28;19945;-72
2023/03/26 01:16:20;;;;;;;;;;;;;;;6.01;89.67;100351.63;4943070;28;19948;-72
2023/03/26 01:18:47;;;;;;;;;;;;;;;5.94;89.98;100351.81;4956654;28;19971;-73
2023/03/26 01:21:21;;;;;;;;;;;;;;;5.92;89.72;100358.44;4925621;28;20457;-72
2023/03/26 01:24:07;;;;;;;;;;;;;;;5.82;89.41;100363.59;4958873;28;19941;-72
2023/03/26 01:26:40;;;;;;;;;;;;;;;5.74;90.09;100359.50;4944520;28;19932;-72
2023/03/26 01:29:09;;;;;;;;;;;;;;;5.71;89.91;100366.13;4956632;28;19952;-72
2023/03/26 01:31:46;;;;;;;;;;;;;;;5.66;90.52;100360.75;4956006;28;20004;-71
2023/03/26 01:34:21;;;;;;;;;;;;;;;5.61;90.58;100373.94;4960465;28;20000;-72
2023/03/26 01:36:46;;;;;;;;;;;;;;;5.64;90.33;100362.84;4960572;28;20328;-73
2023/03/26 01:39:20;;;;;;;;;;;;;;;5.54;90.23;100378.63;4960594;28;19952;-72
2023/03/26 01:41:49;;;;;;;;;;;;;;;5.53;90.37;100376.22;4961309;28;19944;-71
2023/03/26 01:44:33;;;;;;;;;;;;;;;5.45;89.87;100382.78;4956167;28;20001;-72
2023/03/26 01:46:59;;;;;;;;;;;;;;;5.46;89.88;100390.50;4953968;28;19942;-72
2023/03/26 01:49:26;;;;;;;;;;;;;;;5.54;89.30;100383.94;4955410;28;19961;-72
2023/03/26 01:51:52;;;;;;;;;;;;;;;5.52;89.92;100388.72;4959908;28;19940;-72
2023/03/26 01:54:20;;;;;;;;;;;;;;;5.50;89.28;100388.16;4961655;28;19955;-71
2023/03/26 01:56:56;;;;;;;;;;;;;;;5.46;89.22;100392.34;4957429;28;19930;-72
2023/03/26 01:59:22;;;;;;;;;;;;;;;5.33;89.41;100387.38;4945308;28;20074;-71
2023/03/26 02:01:58;;;;;;;;;;;;;;;5.22;89.70;100393.59;4965824;28;20351;-72
2023/03/26 02:04:27;;;;;;;;;;;;;;;5.20;90.02;100397.28;4959017;28;20038;-73
2023/03/26 02:07:00;;;;;;;;;;;;;;;5.30;89.71;100393.97;4954230;28;19967;-73
2023/03/26 02:09:30;;;;;;;;;;;;;;;5.24;89.79;100399.47;4958010;28;19961;-72
2023/03/26 02:11:56;;;;;;;;;;;;;;;5.22;90.01;100393.59;4942713;28;20190;-72
2023/03/26 02:14:22;;;;;;;;;;;;;;;5.27;89.85;100405.06;4942614;28;19938;-71
2023/03/26 02:16:51;;;;;;;;;;;;;;;5.24;89.78;100399.47;4964589;28;19937;-71
2023/03/26 02:19:20;;;;;;;;;;;;;;;5.24;88.65;100384.31;4958909;28;19961;-72
2023/03/26 02:21:49;;;;;;;;;;;;;;;5.24;88.68;100386.19;4956764;28;20028;-71
2023/03/26 02:24:15;;;;;;;;;;;;;;;5.34;88.29;100384.47;4946268;28;19970;-71
2023/03/26 02:26:42;;;;;;;;;;;;;;;5.24;88.66;100394.94;4945648;28;20038;-72
2023/03/26 02:29:09;;;;;;;;;;;;;;;5.27;88.35;100388.34;4960480;28;19958;-71
2023/03/26 02:31:36;;;;;;;;;;;;;;;5.18;88.66;100391.41;4979049;28;20362;-74
2023/03/26 02:34:02;;;;;;;;;;;;;;;5.27;88.35;100394.44;4940739;28;21786;-73
2023/03/26 02:36:30;;;;;;;;;;;;;;;5.19;88.53;100398.31;4976979;28;19936;-73
2023/03/26 02:38:59;;;;;;;;;;;;;;;5.23;87.17;100397.84;4934129;28;19970;-73
2023/03/26 02:41:26;;;;;;;;;;;;;;;5.20;87.84;100405.22;4961411;28;20310;-73
2023/03/26 02:43:56;;;;;;;;;;;;;;;5.19;87.11;100403.63;4944780;28;19937;-73
2023/03/26 02:46:33;;;;;;;;;;;;;;;5.19;86.92;100398.31;4962780;28;19945;-72
2023/03/26 02:49:12;;;;;;;;;;;;;;;5.16;86.66;100398.81;4948346;28;20026;-73
2023/03/26 02:51:37;;;;;;;;;;;;;;;5.14;86.05;100400.88;4942599;28;19961;-72
2023/03/26 02:54:12;;;;;;;;;;;;;;;5.14;86.79;100395.56;4964075;28;19951;-72
2023/03/26 02:56:47;;;;;;;;;;;;;;;5.12;87.17;100395.03;4967020;28;19948;-72
2023/03/26 02:59:23;;;;;;;;;;;;;;;5.02;87.97;100400.19;4945927;28;19953;-72
2023/03/26 03:02:09;;;;;;;;;;;;;;;5.03;87.00;100399.13;4963186;28;20007;-72
2023/03/26 03:04:36;;;;;;;;;;;;;;;5.15;85.80;100399.06;4964144;28;20004;-71
2023/03/26 03:07:02;;;;;;;;;;;;;;;5.11;85.23;100395.28;4946039;28;20395;-72
2023/03/26 03:09:27;;;;;;;;;;;;;;;5.10;85.80;100393.66;4974066;28;19955;-73
2023/03/26 03:12:16;;;;;;;;;;;;;;;4.98;86.71;100391.09;4960130;28;19943;-72
2023/03/26 03:14:41;;;;;;;;;;;;;;;4.98;86.49;100391.09;4957825;28;19946;-73
2023/03/26 03:17:06;;;;;;;;;;;;;;;4.81;86.36;100393.75;4947639;28;19950;-73
2023/03/26 03:19:32;;;;;;;;;;;;;;;4.68;86.20;100396.69;4964444;28;20724;-73
2023/03/26 03:21:59;;;;;;;;;;;;;;;4.67;86.27;100395.06;4965656;28;19938;-74
2023/03/26 03:24:25;;;;;;;;;;;;;;;4.58;87.46;100397.31;4967152;28;19942;-74
2023/03/26 03:26:56;;;;;;;;;;;;;;;4.55;87.81;100400.44;4944643;28;19938;-71
2023/03/26 03:29:43;;;;;;;;;;;;;;;4.61;87.95;100396.03;4969391;28;19955;-72
2023/03/26 03:32:44;;;;;;;;;;;;;;;4.69;88.13;100402.81;4986973;28;19964;-73
2023/03/26 03:35:10;;;;;;;;;;;;;;;4.68;87.97;100398.56;4966502;28;19988;-72
2023/03/26 03:37:37;;;;;;;;;;;;;;;4.62;88.21;100397.66;4950217;28;20466;-73
2023/03/26 03:40:09;;;;;;;;;;;;;;;4.55;88.88;100403.09;4961699;28;19956;-72
2023/03/26 03:42:36;;;;;;;;;;;;;;;4.67;88.26;100403.03;4961990;28;20007;-71
2023/03/26 03:45:04;;;;;;;;;;;;;;;4.65;87.15;100403.25;4944139;28;20399;-73
2023/03/26 03:47:49;;;;;;;;;;;;;;;4.55;87.21;100399.66;4949638;28;19939;-72
2023/03/26 03:50:21;;;;;;;;;;;;;;;4.63;87.29;100400.06;4946287;28;19967;-71
2023/03/26 03:53:07;;;;;;;;;;;;;;;4.63;87.53;100404.56;4962400;28;20365;-71
2023/03/26 03:55:37;;;;;;;;;;;;;;;4.59;87.75;100396.25;4960332;28;20658;-72
2023/03/26 03:58:07;;;;;;;;;;;;;;;4.62;87.50;100401.09;4965847;28;19985;-72
2023/03/26 04:00:37;;;;;;;;;;;;;;;4.63;88.75;100394.75;4963187;28;20730;-73
2023/03/26 04:03:22;;;;;;;;;;;;;;;4.59;88.32;100398.91;4962452;28;20562;-72
2023/03/26 04:05:53;;;;;;;;;;;;;;;4.56;88.59;100404.72;4965080;28;20365;-73
2023/03/26 04:08:21;;;;;;;;;;;;;;;4.62;87.71;100397.66;4964449;28;19953;-72
2023/03/26 04:10:50;;;;;;;;;;;;;;;4.60;87.82;100400.50;4948569;28;20385;-74
2023/03/26 04:13:41;;;;;;;;;;;;;;;4.63;86.65;100389.44;4962309;28;19988;-73
2023/03/26 04:16:21;;;;;;;;;;;;;;;4.56;87.83;100388.00;4945043;28;19944;-71
2023/03/26 04:18:47;;;;;;;;;;;;;;;4.55;87.98;100392.50;4964022;28;19992;-72
2023/03/26 04:21:14;;;;;;;;;;;;;;;4.53;87.99;100391.09;4942131;28;19976;-72
2023/03/26 04:23:41;;;;;;;;;;;;;;;4.54;88.19;100385.59;4949526;28;19941;-72
2023/03/26 04:26:46;;;;;;;;;;;;;;;4.57;88.47;100392.25;4964509;28;19939;-71
2023/03/26 04:29:16;;;;;;;;;;;;;;;4.59;87.21;100390.94;4942734;28;20428;-72
2023/03/26 04:31:42;;;;;;;;;;;;;;;4.60;86.21;100394.41;4928548;28;20464;-74
2023/03/26 04:34:17;;;;;;;;;;;;;;;4.40;85.58;100392.19;4962938;28;19941;-72
2023/03/26 04:36:55;;;;;;;;;;;;;;;4.24;86.29;100385.00;4942320;28;20468;-71
2023/03/26 04:39:29;;;;;;;;;;;;;;;3.96;86.17;100386.59;4947432;28;19954;-75
2023/03/26 04:42:14;;;;;;;;;;;;;;;3.86;86.71;100383.72;4960556;28;19944;-73
2023/03/26 04:44:52;;;;;;;;;;;;;;;3.88;86.65;100386.16;4943621;28;19947;-73
2023/03/26 04:47:18;;;;;;;;;;;;;;;3.74;86.47;100385.59;4961914;28;20118;-72
2023/03/26 04:49:46;;;;;;;;;;;;;;;3.52;87.55;100388.03;4962562;28;19960;-72
2023/03/26 04:52:14;;;;;;;;;;;;;;;3.61;85.51;100388.50;4960128;28;19948;-74
2023/03/26 04:54:58;;;;;;;;;;;;;;;3.52;87.27;100386.22;4961163;28;19949;-71
2023/03/26 04:57:28;;;;;;;;;;;;;;;3.49;87.07;100383.22;4937709;28;19939;-72
2023/03/26 05:00:07;;;;;;;;;;;;;;;3.49;86.98;100388.50;4943593;28;20421;-72
2023/03/26 05:02:38;;;;;;;;;;;;;;;3.38;87.47;100387.47;4958807;28;19939;-72
2023/03/26 05:05:04;;;;;;;;;;;;;;;3.62;87.17;100387.47;4960037;28;20202;-73
2023/03/26 05:07:32;;;;;;;;;;;;;;;3.62;86.85;100392.75;4960440;28;19937;-72
2023/03/26 05:10:02;;;;;;;;;;;;;;;3.74;86.73;100385.59;4959067;28;20290;-72
2023/03/26 05:12:34;;;;;;;;;;;;;;;3.71;87.44;100391.34;4960539;28;20012;-74
2023/03/26 05:15:16;;;;;;;;;;;;;;;3.89;86.14;100391.22;4943393;28;20010;-73
2023/03/26 05:18:07;;;;;;;;;;;;;;;4.04;86.07;100380.13;4956736;28;19941;-72
2023/03/26 05:20:42;;;;;;;;;;;;;;;4.14;85.06;100390.94;4961578;28;19945;-72
2023/03/26 05:23:10;;;;;;;;;;;;;;;4.13;85.65;100388.50;4939875;28;19938;-73
2023/03/26 05:25:39;;;;;;;;;;;;;;;4.12;85.45;100398.28;4947247;28;20329;-71
2023/03/26 05:28:13;;;;;;;;;;;;;;;4.20;84.96;100394.47;4961363;28;19960;-74
2023/03/26 05:30:59;;;;;;;;;;;;;;;4.01;85.59;100394.66;4936884;28;19958;-73
2023/03/26 05:33:29;;;;;;;;;;;;;;;3.97;84.75;100392.69;4943050;28;19997;-71
2023/03/26 05:36:05;;;;;;;;;;;;;;;3.82;85.70;100387.88;4943394;28;19930;-73
2023/03/26 05:38:31;;;;;;;;;;;;;;;3.85;86.64;100398.00;4961050;28;20355;-72
2023/03/26 05:40:59;;;;;;;;;;;;;;;3.89;86.05;100393.88;4960932;28;20426;-74
2023/03/26 05:43:24;;;;;;;;;;;;;;;4.01;85.63;100396.50;4962932;28;20337;-73
2023/03/26 05:46:21;;;;;;;;;;;;;;;4.01;85.93;100394.66;4958623;28;19944;-72
2023/03/26 05:48:47;;;;;;;;;;;;;;;4.13;86.20;100399.09;4978679;28;20034;-72
2023/03/26 05:51:16;;;;;;;;;;;;;;;4.18;86.21;100402.66;4941066;28;20008;-72
2023/03/26 05:53:53;;;;;;;;;;;;;;;4.22;86.15;100406.44;4952285;28;19979;-72
2023/03/26 05:56:39;;;;;;;;;;;;;;;4.27;85.97;100408.41;4958736;28;20416;-72
2023/03/26 05:59:23;;;;;;;;;;;;;;;4.33;85.88;100410.88;4958591;28;19957;-72
2023/03/26 06:02:08;;;;;;;;;;;;;;;4.33;85.31;100413.53;4962291;28;19945;-72
2023/03/26 06:04:56;;;;;;;;;;;;;;;4.43;83.59;100412.94;4961852;28;19944;-73
2023/03/26 06:07:46;;;;;;;;;;;;;;;4.43;83.60;100415.59;4968334;28;19948;-73
2023/03/26 06:10:15;;;;;;;;;;;;;;;4.47;85.13;100416.75;4948908;28;20036;-72
2023/03/26 06:12:40;;;;;;;;;;;;;;;4.62;84.07;100419.66;4945810;28;20655;-71
2023/03/26 06:15:07;;;;;;;;;;;;;;;4.50;83.17;100426.88;4962250;28;19994;-73
2023/03/26 06:17:44;;;;;;;;;;;;;;;4.66;83.25;100427.94;4944277;28;19982;-72
2023/03/26 06:20:17;;;;;;;;;;;;;;;4.62;82.92;100418.88;4961440;28;19997;-72
2023/03/26 06:22:45;;;;;;;;;;;;;;;4.59;82.98;100429.94;4965190;28;19942;-72
2023/03/26 06:25:19;;;;;;;;;;;;;;;4.55;83.56;100412.91;4951909;28;20438;-71
2023/03/26 06:27:58;;;;;;;;;;;;;;;4.59;82.06;100420.13;4944186;28;19935;-74
2023/03/26 06:30:42;;;;;;;;;;;;;;;4.67;81.90;100424.25;4953483;28;20000;-73
2023/03/26 06:33:27;;;;;;;;;;;;;;;4.71;81.16;100416.63;4963768;28;19970;-72
2023/03/26 06:35:53;;;;;;;;;;;;;;;4.84;82.49;100421.63;4945860;28;20308;-73
2023/03/26 06:38:19;;;;;;;;;;;;;;;4.91;81.90;100427.59;4964534;28;19957;-73
2023/03/26 06:40:45;;;;;;;;;;;;;;;5.01;81.47;100419.78;4967697;28;20310;-73
2023/03/26 06:43:35;;;;;;;;;;;;;;;5.02;81.70;100440.00;4960757;28;20002;-73
2023/03/26 06:46:22;;;;;;;;;;;;;;;5.12;81.00;100439.34;4962247;28;19993;-72
2023/03/26 06:49:06;;;;;;;;;;;;;;;5.23;81.51;100435.03;4969096;28;20770;-73
2023/03/26 06:52:11;;;;;;;;;;;;;;;5.23;80.96;100435.03;4957423;28;20053;-73
2023/03/26 06:55:09;;;;;;;;;;;;;;;5.24;81.04;100436.63;4982115;28;19936;-73
2023/03/26 06:57:57;;;;;;;;;;;;;;;5.44;80.35;100443.06;4964236;28;19937;-73
2023/03/26 07:00:41;;;;;;;;;;;;;;;5.48;79.85;100446.00;4967973;28;19934;-74
2023/03/26 07:03:45;;;;;;;;;;;;;;;5.42;78.27;100442.50;4931412;28;20005;-73
2023/03/26 07:06:31;;;;;;;;;;;;;;;5.51;77.52;100440.22;4929686;28;19991;-73
2023/03/26 07:09:19;;;;;;;;;;;;;;;5.53;78.87;100446.09;4944320;28;19999;-73
2023/03/26 07:12:03;;;;;;;;;;;;;;;5.66;79.51;100443.09;4960427;28;19955;-75
2023/03/26 07:14:48;;;;;;;;;;;;;;;5.71;78.72;100453.81;4949109;28;20051;-73
2023/03/26 07:17:32;;;;;;;;;;;;;;;5.73;77.09;100441.06;4965191;28;19948;-75
2023/03/26 07:20:12;;;;;;;;;;;;;;;5.94;76.94;100431.56;4943186;28;19958;-75
2023/03/26 07:22:39;;;;;;;;;;;;;;;5.79;74.91;100439.28;4945353;28;20010;-73
2023/03/26 07:25:26;;;;;;;;;;;;;;;5.69;75.88;100437.31;4962809;28;19937;-74
2023/03/26 07:28:16;;;;;;;;;;;;;;;5.92;76.49;100430.19;4959912;28;20687;-71
2023/03/26 07:31:05;;;;;;;;;;;;;;;6.01;72.60;100426.06;4945527;28;20221;-74
2023/03/26 07:33:38;;;;;;;;;;;;;;;5.77;72.17;100427.31;4961407;28;19937;-73
2023/03/26 07:36:42;;;;;;;;;;;;;;;5.75;71.58;100440.81;4969175;28;19993;-73
2023/03/26 07:39:36;;;;;;;;;;;;;;;5.88;73.81;100439.66;4959046;28;19961;-73
2023/03/26 07:42:25;;;;;;;;;;;;;;;5.97;70.01;100439.06;4978893;28;20735;-73
2023/03/26 07:45:18;;;;;;;;;;;;;;;5.83;70.33;100434.31;4964506;28;19962;-73
2023/03/26 07:48:24;;;;;;;;;;;;;;;5.86;70.50;100445.25;4990939;28;19953;-74
2023/03/26 07:51:10;;;;;;;;;;;;;;;6.01;68.35;100437.50;4941907;28;19965;-73
2023/03/26 07:53:48;;;;;;;;;;;;;;;5.81;68.35;100441.69;4962180;28;19931;-74
2023/03/26 07:56:53;;;;;;;;;;;;;;;6.09;69.16;100444.22;4942228;28;19948;-73
2023/03/26 07:59:59;;;;;;;;;;;;;;;5.89;65.95;100444.78;4932405;28;19994;-72
2023/03/26 08:02:59;;;;;;;;;;;;;;;6.00;67.71;100443.84;4963981;28;19945;-73
2023/03/26 08:05:59;;;;;;;;;;;;;;;6.01;66.33;100452.63;4964388;28;20441;-73
2023/03/26 08:08:34;;;;;;;;;;;;;;;5.97;66.28;100440.91;4962523;28;19997;-72
2023/03/26 08:11:26;;;;;;;;;;;;;;;5.89;65.48;100443.94;4953681;28;19954;-72
2023/03/26 08:13:59;;;;;;;;;;;;;;;5.97;64.54;100441.72;4964348;28;20323;-73
2023/03/26 08:16:50;;;;;;;;;;;;;;;6.19;68.15;100433.72;4944089;28;19950;-72
2023/03/26 08:19:26;;;;;;;;;;;;;;;6.41;66.38;100444.34;4958935;28;19958;-73
2023/03/26 08:22:05;;;;;;;;;;;;;;;6.47;65.06;100439.91;4962689;28;19939;-73
2023/03/26 08:24:39;;;;;;;;;;;;;;;6.43;63.01;100452.06;4949247;28;19935;-73
2023/03/26 08:27:22;;;;;;;;;;;;;;;6.31;63.44;100452.22;4942888;28;19940;-74
2023/03/26 08:29:54;;;;;;;;;;;;;;;6.88;64.25;100442.97;4955808;28;19957;-72
2023/03/26 08:32:19;;;;;;;;;;;;;;;6.88;62.21;100440.31;4960154;28;20001;-73
2023/03/26 08:34:45;;;;;;;;;;;;;;;6.87;63.60;100450.16;4950794;28;19945;-73
2023/03/26 08:37:11;;;;;;;;;;;;;;;6.94;63.77;100450.75;4961699;28;19938;-72
2023/03/26 08:39:38;;;;;;;;;;;;;;;6.94;62.36;100455.28;4962138;28;20312;-73
2023/03/26 08:42:06;;;;;;;;;;;;;;;6.65;61.17;100452.88;4947216;28;19938;-72
2023/03/26 08:44:39;;;;;;;;;;;;;;;7.03;62.36;100454.56;4965649;28;19944;-73
2023/03/26 08:47:22;;;;;;;;;;;;;;;7.13;61.50;100453.84;4960990;28;19988;-72
2023/03/26 08:49:57;;;;;;;;;;;;;;;7.17;59.45;100443.47;4963199;28;20327;-73
2023/03/26 08:52:36;;;;;;;;;;;;;;;6.81;61.07;100449.31;4946954;28;19937;-73
2023/03/26 08:55:03;;;;;;;;;;;;;;;7.23;61.23;100448.59;4960748;28;19935;-73
2023/03/26 08:57:33;;;;;;;;;;;;;;;7.55;62.11;100445.91;4960988;28;20686;-74
2023/03/26 09:00:12;;;;;;;;;;;;;;;7.63;58.24;100444.63;4950607;28;19959;-73
2023/03/26 09:02:56;;;;;;;;;;;;;;;7.60;59.66;100443.28;4943632;28;19935;-72
2023/03/26 09:05:35;;;;;;;;;;;;;;;7.36;59.81;100442.84;4982104;28;19993;-72
2023/03/26 09:08:03;;;;;;;;;;;;;;;7.21;60.07;100437.41;4965846;28;19949;-73
2023/03/26 09:10:29;;;;;;;;;;;;;;;7.14;62.14;100439.47;4960551;28;19958;-72
2023/03/26 09:13:14;;;;;;;;;;;;;;;7.50;61.25;100442.41;4956582;28;20021;-74
2023/03/26 09:16:04;;;;;;;;;;;;;;;7.63;60.66;100441.97;4966335;28;19937;-72
2023/03/26 09:18:32;;;;;;;;;;;;;;;7.80;57.31;100428.47;4956503;28;19976;-76
2023/03/26 09:21:16;;;;;;;;;;;;;;;8.33;57.73;100424.72;4959531;28;20398;-75
2023/03/26 09:23:42;;;;;;;;;;;;;;;8.00;56.41;100430.44;4982305;28;19937;-75
2023/03/26 09:26:17;;;;;;;;;;;;;;;7.62;57.48;100435.03;4963818;28;19937;-74
2023/03/26 09:28:52;;;;;;;;;;;;;;;7.60;57.71;100435.28;4948593;28;20460;-73
2023/03/26 09:31:23;;;;;;;;;;;;;;;7.67;59.05;100440.41;4942682;28;19981;-73
2023/03/26 09:33:58;;;;;;;;;;;;;;;7.61;57.72;100449.41;4963137;28;19934;-73
2023/03/26 09:36:24;;;;;;;;;;;;;;;7.79;57.00;100448.19;4951208;28;19938;-73
2023/03/26 09:38:55;;;;;;;;;;;;;;;8.01;57.47;100448.06;4963289;28;19959;-73
2023/03/26 09:41:38;;;;;;;;;;;;;;;8.00;58.44;100438.44;4952780;28;19943;-73
2023/03/26 09:44:15;;;;;;;;;;;;;;;7.82;58.58;100456.47;4968918;28;20410;-72
2023/03/26 09:46:50;;;;;;;;;;;;;;;7.64;56.43;100455.03;4926644;28;20057;-72
2023/03/26 09:49:31;;;;;;;;;;;;;;;7.68;56.78;100452.66;4945930;28;20384;-72
2023/03/26 09:52:23;;;;;;;;;;;;;;;7.24;58.03;100458.19;4966885;28;19949;-74
2023/03/26 09:54:58;;;;;;;;;;;;;;;7.20;57.20;100461.63;4962541;28;19944;-72
2023/03/26 09:57:24;;;;;;;;;;;;;;;7.26;59.22;100464.09;4985317;28;19936;-70
2023/03/26 09:59:55;;;;;;;;;;;;;;;7.73;55.80;100466.03;4951890;28;19969;-74
2023/03/26 10:02:39;;;;;;;;;;;;;;;8.20;55.54;100465.22;4967032;28;19966;-74
2023/03/26 10:05:19;;;;;;;;;;;;;;;8.67;57.29;100467.81;4951069;28;19936;-73
2023/03/26 10:07:50;;;;;;;;;;;;;;;9.07;54.45;100460.91;4967733;28;19986;-73
2023/03/26 10:10:40;;;;;;;;;;;;;;;8.72;52.52;100469.66;4969497;28;19959;-74
2023/03/26 10:13:18;;;;;;;;;;;;;;;8.75;55.21;100466.50;4948519;28;20339;-73
2023/03/26 10:15:44;;;;;;;;;;;;;;;8.21;54.48;100470.28;4962329;28;19980;-72
2023/03/26 10:18:22;;;;;;;;;;;;;;;8.24;55.24;100470.81;4969486;28;19938;-73
2023/03/26 10:20:50;;;;;;;;;;;;;;;8.47;54.36;100463.22;4969922;28;19941;-73
2023/03/26 10:23:28;;;;;;;;;;;;;;;8.56;53.14;100470.72;4967587;28;19938;-74
2023/03/26 10:26:12;;;;;;;;;;;;;;;8.87;53.08;100460.88;4959826;28;19990;-73
2023/03/26 10:28:47;;;;;;;;;;;;;;;9.01;54.28;100462.00;4965218;28;20430;-74
2023/03/26 10:31:22;;;;;;;;;;;;;;;9.10;54.04;100454.25;4950617;28;20413;-74
2023/03/26 10:33:55;;;;;;;;;;;;;;;8.47;53.10;100455.22;4983647;28;19945;-74
2023/03/26 10:36:57;;;;;;;;;;;;;;;8.31;53.82;100464.16;4966745;28;19941;-74
2023/03/26 10:39:22;;;;;;;;;;;;;;;8.19;54.78;100455.59;4951900;28;19950;-74
2023/03/26 10:42:07;;;;;;;;;;;;;;;8.04;57.15;100463.53;4962354;28;19938;-75
2023/03/26 10:44:54;;;;;;;;;;;;;;;7.93;55.41;100463.47;4931666;29;19958;-75
2023/03/26 10:47:22;;;;;;;;;;;;;;;7.85;58.62;100471.94;4951309;28;20038;-74
2023/03/26 10:49:51;;;;;;;;;;;;;;;7.69;56.82;100470.25;4960466;28;19964;-74
2023/03/26 10:52:33;;;;;;;;;;;;;;;7.73;54.80;100471.34;4957766;28;19993;-74
2023/03/26 10:55:08;;;;;;;;;;;;;;;8.25;54.97;100462.53;4959075;28;19989;-74
2023/03/26 10:57:36;;;;;;;;;;;;;;;8.80;53.65;100465.69;4955214;28;19944;-75
2023/03/26 11:00:24;;;;;;;;;;;;;;;9.03;53.92;100463.31;4963355;28;19952;-74
2023/03/26 11:02:59;;;;;;;;;;;;;;;9.30;49.93;100446.22;4955164;28;19935;-74
2023/03/26 11:05:43;;;;;;;;;;;;;;;10.02;53.34;100454.91;4963725;28;19966;-73
2023/03/26 11:08:17;;;;;;;;;;;;;;;9.77;51.00;100455.81;4940734;28;20456;-75
2023/03/26 11:11:01;;;;;;;;;;;;;;;9.30;50.22;100452.38;4949280;28;19958;-71
2023/03/26 11:13:32;;;;;;;;;;;;;;;9.22;52.34;100460.13;4951125;28;20026;-75
2023/03/26 11:16:09;;;;;;;;;;;;;;;9.15;49.88;100457.72;4973363;28;20389;-75
2023/03/26 11:18:47;;;;;;;;;;;;;;;9.70;52.61;100457.94;4962403;28;19950;-72
2023/03/26 11:21:31;;;;;;;;;;;;;;;9.66;48.77;100452.34;4957815;28;19927;-72
2023/03/26 11:24:05;;;;;;;;;;;;;;;9.46;47.96;100457.69;4961688;28;20421;-74
2023/03/26 11:26:56;;;;;;;;;;;;;;;8.98;49.11;100454.50;4954741;28;19972;-72
2023/03/26 11:29:31;;;;;;;;;;;;;;;9.44;50.50;100452.63;4977566;28;19962;-73
2023/03/26 11:32:04;;;;;;;;;;;;;;;9.26;51.07;100448.63;4950590;28;20048;-73
2023/03/26 11:34:33;;;;;;;;;;;;;;;8.99;52.36;100451.56;4960580;28;19939;-74
2023/03/26 11:37:00;;;;;;;;;;;;;;;9.61;49.02;100451.53;4945779;28;19933;-74
2023/03/26 11:39:28;;;;;;;;;;;;;;;9.73;50.33;100442.16;4963703;28;19954;-75
2023/03/26 11:42:12;;;;;;;;;;;;;;;9.99;52.15;100448.25;4946564;28;19967;-73
2023/03/26 11:45:02;;;;;;;;;;;;;;;9.81;49.24;100438.13;4966585;28;19939;-73
2023/03/26 11:47:30;;;;;;;;;;;;;;;10.10;49.60;100441.78;4961503;28;19945;-74
2023/03/26 11:49:57;;;;;;;;;;;;;;;9.84;47.89;100450.97;4967302;28;19959;-73
2023/03/26 11:52:25;;;;;;;;;;;;;;;10.15;47.46;100437.47;4954422;28;19934;-74
2023/03/26 11:54:51;;;;;;;;;;;;;;;10.30;47.47;100434.78;4954142;28;20063;-73
2023/03/26 11:57:22;;;;;;;;;;;;;;;10.35;46.77;100437.41;4958300;28;20420;-73
2023/03/26 12:00:09;;;;;;;;;;;;;;;9.96;47.83;100438.09;4956814;28;19956;-75
2023/03/26 12:02:38;;;;;;;;;;;;;;;9.96;47.77;100427.41;4941304;28;19944;-73
2023/03/26 12:05:21;;;;;;;;;;;;;;;9.98;46.35;100432.47;4954806;28;20032;-73
2023/03/26 12:07:50;;;;;;;;;;;;;;;10.29;48.32;100417.09;4940401;28;19936;-73
2023/03/26 12:10:23;;;;;;;;;;;;;;;10.85;49.66;100424.81;4960018;28;19971;-74
2023/03/26 12:12:53;;;;;;;;;;;;;;;11.19;47.19;100428.31;4960768;28;19984;-74
2023/03/26 12:15:20;;;;;;;;;;;;;;;11.02;45.98;100429.78;4942137;28;20384;-73
2023/03/26 12:17:52;;;;;;;;;;;;;;;11.18;47.34;100421.34;4963080;28;19994;-73
2023/03/26 12:20:29;;;;;;;;;;;;;;;11.40;45.62;100425.44;4931103;28;20612;-74
2023/03/26 12:22:59;;;;;;;;;;;;;;;11.67;45.96;100423.03;4942663;28;19988;-73
2023/03/26 12:25:29;;;;;;;;;;;;;;;11.60;45.70;100417.19;4944511;28;20647;-74
2023/03/26 12:28:01;;;;;;;;;;;;;;;11.95;44.43;100421.41;4945066;28;19990;-74
2023/03/26 12:30:30;;;;;;;;;;;;;;;11.82;43.71;100426.66;4961909;28;19960;-73
2023/03/26 12:33:02;;;;;;;;;;;;;;;12.27;42.72;100426.13;4963108;28;19941;-73
2023/03/26 12:35:33;;;;;;;;;;;;;;;12.29;42.21;100425.84;4959705;28;19943;-73
2023/03/26 12:38:20;;;;;;;;;;;;;;;12.13;41.89;100432.50;4961491;28;19934;-73
2023/03/26 12:40:48;;;;;;;;;;;;;;;12.15;42.74;100431.09;4934527;28;19937;-73
2023/03/26 12:43:32;;;;;;;;;;;;;;;12.03;42.52;100425.34;4972878;28;19949;-74
2023/03/26 12:45:58;;;;;;;;;;;;;;;11.83;43.22;100428.25;4937385;28;19982;-72
2023/03/26 12:48:24;;;;;;;;;;;;;;;12.38;42.02;100425.97;4958766;28;19989;-73
2023/03/26 12:51:03;;;;;;;;;;;;;;;11.36;41.17;100419.03;4943634;28;19973;-73
2023/03/26 12:53:39;;;;;;;;;;;;;;;10.82;45.11;100433.41;4969459;28;20039;-76
2023/03/26 12:56:16;;;;;;;;;;;;;;;10.58;45.31;100436.78;4949628;28;19922;-72
2023/03/26 12:58:50;;;;;;;;;;;;;;;11.21;43.79;100433.38;4958588;28;19953;-72
2023/03/26 13:01:32;;;;;;;;;;;;;;;11.80;43.04;100426.94;4952103;28;19951;-73
2023/03/26 13:04:05;;;;;;;;;;;;;;;12.64;42.05;100431.81;4954835;28;20485;-73
2023/03/26 13:06:40;;;;;;;;;;;;;;;12.14;41.03;100434.09;4960576;28;19941;-75
2023/03/26 13:09:06;;;;;;;;;;;;;;;12.13;43.07;100427.91;4958137;28;20067;-73
2023/03/26 13:11:37;;;;;;;;;;;;;;;12.14;41.70;100431.41;4962308;28;20014;-73
2023/03/26 13:14:14;;;;;;;;;;;;;;;12.25;41.99;100422.09;4946633;28;19958;-74
2023/03/26 13:16:54;;;;;;;;;;;;;;;12.56;41.74;100425.19;4962487;28;20132;-74
2023/03/26 13:19:20;;;;;;;;;;;;;;;13.39;38.43;100416.38;4945708;28;19972;-73
2023/03/26 13:21:55;;;;;;;;;;;;;;;12.80;41.22;100420.56;4960935;28;19938;-76
2023/03/26 13:24:43;;;;;;;;;;;;;;;13.38;40.09;100414.78;4956495;28;19943;-74
2023/03/26 13:27:28;;;;;;;;;;;;;;;13.36;37.57;100414.28;4941823;28;19932;-73